createdAt,value
2018-03-16T00:00:24.362Z,44.22
2018-03-16T00:02:50.386Z,44.58
2018-03-16T00:05:16.396Z,43.60
2018-03-16T00:07:42.541Z,45.10
2018-03-16T00:10:08.538Z,41.88
2018-03-16T00:12:34.791Z,43.17
2018-03-16T00:15:00.846Z,44.80
2018-03-16T00:17:26.890Z,47.08
2018-03-16T00:19:52.946Z,43.65
2018-03-16T00:22:31.180Z,45.05
2018-03-16T00:24:57.251Z,44.28
2018-03-16T00:27:23.469Z,43.45
2018-03-16T00:29:49.461Z,45.53
2018-03-16T00:32:16.231Z,44.78
2018-03-16T00:34:42.369Z,43.92
2018-03-16T00:37:08.448Z,45.55
2018-03-16T00:39:34.441Z,46.47
2018-03-16T00:42:00.583Z,46.17
2018-03-16T00:44:26.598Z,46.03
2018-03-16T00:46:52.594Z,47.53
2018-03-16T00:49:18.642Z,45.80
2018-03-16T00:51:44.728Z,46.37
2018-03-16T00:54:10.833Z,46.95
2018-03-16T00:56:36.840Z,46.40
2018-03-16T00:59:02.872Z,46.53
2018-03-16T01:01:28.974Z,48.33
2018-03-16T01:03:54.982Z,47.10
2018-03-16T01:06:20.984Z,44.38
2018-03-16T01:08:47.017Z,47.22
2018-03-16T01:11:13.036Z,47.13
2018-03-16T01:13:39.046Z,48.40
2018-03-16T01:16:05.055Z,48.50
2018-03-16T01:18:31.041Z,47.67
2018-03-16T01:20:57.045Z,49.20
2018-03-16T01:23:23.034Z,47.00
2018-03-16T01:25:49.105Z,46.92
2018-03-16T01:28:15.111Z,47.00
2018-03-16T01:30:41.136Z,49.53
2018-03-16T01:33:07.155Z,48.97
2018-03-16T01:35:33.154Z,47.95
2018-03-16T01:37:59.280Z,50.08
2018-03-16T01:40:25.301Z,50.10
2018-03-16T01:42:51.350Z,48.85
2018-03-16T01:45:17.376Z,50.60
2018-03-16T01:47:43.385Z,51.47
2018-03-16T01:50:09.398Z,47.78
2018-03-16T01:52:35.423Z,51.33
2018-03-16T01:55:01.500Z,49.28
2018-03-16T01:57:27.517Z,53.38
2018-03-16T01:59:53.547Z,52.72
2018-03-16T02:02:19.592Z,50.42
2018-03-16T02:04:45.601Z,53.92
2018-03-16T02:07:11.690Z,52.58
2018-03-16T02:09:37.794Z,54.97
2018-03-16T02:12:03.791Z,53.05
2018-03-16T02:14:29.804Z,53.50
2018-03-16T02:16:55.881Z,54.25
2018-03-16T02:19:21.888Z,53.85
2018-03-16T02:21:47.910Z,52.58
2018-03-16T02:24:14.034Z,52.62
2018-03-16T02:26:41.077Z,52.50
2018-03-16T02:29:07.163Z,49.75
2018-03-16T02:31:33.192Z,50.10
2018-03-16T02:33:59.193Z,49.42
2018-03-16T02:36:25.201Z,51.47
2018-03-16T02:38:51.206Z,52.78
2018-03-16T02:41:17.189Z,51.17
2018-03-16T02:43:43.258Z,51.58
2018-03-16T02:46:09.362Z,50.22
2018-03-16T02:48:35.864Z,49.33
2018-03-16T02:51:02.312Z,51.13
2018-03-16T02:53:28.456Z,52.35
2018-03-16T02:55:54.501Z,52.13
2018-03-16T02:58:20.499Z,55.42
2018-03-16T03:00:46.648Z,53.17
2018-03-16T03:03:12.660Z,56.83
2018-03-16T03:05:38.693Z,52.88
2018-03-16T03:08:04.701Z,55.15
2018-03-16T03:10:30.735Z,52.67
2018-03-16T03:12:56.744Z,55.88
2018-03-16T03:15:22.780Z,55.63
2018-03-16T03:17:49.101Z,53.95
2018-03-16T03:20:15.122Z,55.05
2018-03-16T03:22:41.120Z,54.83
2018-03-16T03:25:07.140Z,52.70
2018-03-16T03:27:33.166Z,50.85
2018-03-16T03:29:59.162Z,52.60
2018-03-16T03:32:25.302Z,53.72
2018-03-16T03:34:51.646Z,54.00
2018-03-16T03:37:17.766Z,52.88
2018-03-16T03:39:43.796Z,52.92
2018-03-16T03:42:09.890Z,53.20
2018-03-16T03:44:36.235Z,55.83
2018-03-16T03:47:02.418Z,51.97
2018-03-16T03:49:28.548Z,51.15
2018-03-16T03:51:54.575Z,52.33
2018-03-16T03:54:21.003Z,52.47
2018-03-16T03:56:47.024Z,48.60
2018-03-16T03:59:13.028Z,53.30
2018-03-16T04:01:39.038Z,51.70
2018-03-16T04:04:05.070Z,52.75
2018-03-16T04:06:31.082Z,54.63
2018-03-16T04:08:57.119Z,52.35
2018-03-16T04:11:23.120Z,50.55
2018-03-16T04:13:49.140Z,55.85
2018-03-16T04:16:15.189Z,55.12
2018-03-16T04:18:41.284Z,50.67
2018-03-16T04:21:07.410Z,54.63
2018-03-16T04:23:33.482Z,53.25
2018-03-16T04:25:59.554Z,54.05
2018-03-16T04:28:26.043Z,59.05
2018-03-16T04:30:52.055Z,56.95
2018-03-16T04:33:18.076Z,57.88
2018-03-16T04:35:44.177Z,56.92
2018-03-16T04:38:10.299Z,59.45
2018-03-16T04:40:36.385Z,55.15
2018-03-16T04:43:02.421Z,57.28
2018-03-16T04:45:28.483Z,60.30
2018-03-16T04:47:54.515Z,59.17
2018-03-16T04:50:20.518Z,56.60
2018-03-16T04:52:46.565Z,59.03
2018-03-16T04:55:13.179Z,62.33
2018-03-16T04:57:39.271Z,63.47
2018-03-16T05:00:05.274Z,58.78
2018-03-16T05:02:31.342Z,60.90
2018-03-16T05:04:57.411Z,59.67
2018-03-16T05:07:24.056Z,62.88
2018-03-16T05:09:50.497Z,65.20
2018-03-16T05:12:17.036Z,59.58
2018-03-16T05:14:43.118Z,61.17
2018-03-16T05:17:09.205Z,61.08
2018-03-16T05:19:35.194Z,61.25
2018-03-16T05:22:01.216Z,64.72
2018-03-16T05:24:27.201Z,63.72
2018-03-16T05:26:53.218Z,65.05
2018-03-16T05:29:19.252Z,65.10
2018-03-16T05:31:45.387Z,67.93
2018-03-16T05:34:11.588Z,66.78
2018-03-16T05:36:37.920Z,61.65
2018-03-16T05:39:04.450Z,64.75
2018-03-16T05:41:30.511Z,61.10
2018-03-16T05:43:56.625Z,68.60
2018-03-16T05:46:22.636Z,65.05
2018-03-16T05:48:48.649Z,69.10
2018-03-16T05:51:14.733Z,68.80
2018-03-16T05:53:40.790Z,69.93
2018-03-16T05:56:07.094Z,70.12
2018-03-16T05:58:33.125Z,69.68
2018-03-16T06:00:59.134Z,66.57
2018-03-16T06:03:25.142Z,69.90
2018-03-16T06:05:51.250Z,68.87
2018-03-16T06:08:17.317Z,67.50
2018-03-16T06:10:43.326Z,68.15
2018-03-16T06:13:09.330Z,68.85
2018-03-16T06:15:35.423Z,70.53
2018-03-16T06:18:01.452Z,72.12
2018-03-16T06:20:27.517Z,70.53
2018-03-16T06:22:53.492Z,65.87
2018-03-16T06:25:19.512Z,72.28
2018-03-16T06:27:45.657Z,68.90
2018-03-16T06:30:12.121Z,66.20
2018-03-16T06:32:38.125Z,66.85
2018-03-16T06:35:04.250Z,66.50
2018-03-16T06:37:30.343Z,67.30
2018-03-16T06:39:56.453Z,66.57
2018-03-16T06:42:22.553Z,67.57
2018-03-16T06:44:48.697Z,66.78
2018-03-16T06:47:14.655Z,65.03
2018-03-16T06:49:40.757Z,69.37
2018-03-16T06:52:06.779Z,66.68
2018-03-16T06:54:32.791Z,66.90
2018-03-16T06:56:58.822Z,65.40
2018-03-16T06:59:24.878Z,67.72
2018-03-16T07:01:50.880Z,72.28
2018-03-16T07:04:16.905Z,69.50
2018-03-16T07:06:42.972Z,67.82
2018-03-16T07:09:09.080Z,65.60
2018-03-16T07:11:35.133Z,68.72
2018-03-16T07:14:01.294Z,65.10
2018-03-16T07:16:27.330Z,66.35
2018-03-16T07:18:53.368Z,66.00
2018-03-16T07:21:19.455Z,63.55
2018-03-16T07:23:45.539Z,67.00
2018-03-16T07:26:11.567Z,72.20
2018-03-16T07:28:37.607Z,66.62
2018-03-16T07:31:03.682Z,64.80
2018-03-16T07:33:29.765Z,67.47
2018-03-16T07:35:55.769Z,71.72
2018-03-16T07:38:21.827Z,70.32
2018-03-16T07:40:47.846Z,71.32
2018-03-16T07:43:13.989Z,71.57
2018-03-16T07:45:45.966Z,71.30
2018-03-16T07:48:11.973Z,68.35
2018-03-16T07:50:38.098Z,71.62
2018-03-16T07:53:04.258Z,71.97
2018-03-16T07:55:30.462Z,70.95
2018-03-16T08:00:29.168Z,69.97
2018-03-16T08:02:55.253Z,66.40
2018-03-16T08:05:21.277Z,65.12
2018-03-16T08:07:47.359Z,68.00
2018-03-16T08:10:13.369Z,66.10
2018-03-16T08:12:39.442Z,61.17
2018-03-16T08:15:05.462Z,66.57
2018-03-16T08:17:32.224Z,62.17
2018-03-16T08:19:58.342Z,60.67
2018-03-16T08:22:24.469Z,61.78
2018-03-16T08:24:50.464Z,59.35
2018-03-16T08:27:16.534Z,66.87
2018-03-16T08:29:42.612Z,63.03
2018-03-16T08:32:08.643Z,58.92
2018-03-16T08:34:34.676Z,63.87
2018-03-16T08:37:00.771Z,63.25
2018-03-16T08:39:26.802Z,65.05
2018-03-16T08:41:52.812Z,62.65
2018-03-16T08:44:18.933Z,64.65
2018-03-16T08:46:44.974Z,60.63
2018-03-16T08:49:11.057Z,58.05
2018-03-16T08:51:37.122Z,61.10
2018-03-16T08:54:03.134Z,59.70
2018-03-16T08:56:29.205Z,63.53
2018-03-16T08:58:55.212Z,60.42
2018-03-16T09:01:21.228Z,57.62
2018-03-16T09:03:47.262Z,57.38
2018-03-16T09:06:13.291Z,55.83
2018-03-16T09:08:39.307Z,56.90
2018-03-16T09:11:05.439Z,58.25
2018-03-16T09:13:31.623Z,58.90
2018-03-16T09:15:57.669Z,57.33
2018-03-16T09:18:23.949Z,55.45
2018-03-16T09:20:50.094Z,58.60
2018-03-16T09:23:16.199Z,57.38
2018-03-16T09:25:42.344Z,56.47
2018-03-16T09:28:08.604Z,57.38
2018-03-16T09:30:34.642Z,59.40
2018-03-16T09:33:00.687Z,58.58
2018-03-16T09:35:26.764Z,55.15
2018-03-16T09:37:52.841Z,56.95
2018-03-16T09:40:18.869Z,55.12
2018-03-16T09:42:44.869Z,55.63
2018-03-16T09:45:10.869Z,56.85
2018-03-16T09:47:36.870Z,55.65
2018-03-16T09:50:02.976Z,56.55
2018-03-16T09:52:28.985Z,56.13
2018-03-16T09:55:07.094Z,56.08
2018-03-16T09:57:33.114Z,54.70
2018-03-16T09:59:59.163Z,55.25
2018-03-16T10:02:25.185Z,58.53
2018-03-16T10:04:51.269Z,61.92
2018-03-16T10:07:17.296Z,62.30
2018-03-16T10:09:43.356Z,58.65
2018-03-16T10:12:09.387Z,62.97
2018-03-16T10:14:35.419Z,59.58
2018-03-16T10:17:01.507Z,61.88
2018-03-16T10:19:27.566Z,56.70
2018-03-16T10:21:53.583Z,56.85
2018-03-16T10:24:19.590Z,59.55
2018-03-16T10:26:45.721Z,55.05
2018-03-16T10:29:11.775Z,59.97
2018-03-16T10:31:37.826Z,59.38
2018-03-16T10:34:03.864Z,58.65
2018-03-16T10:36:30.007Z,60.30
2018-03-16T10:38:56.149Z,60.90
2018-03-16T10:41:22.403Z,60.85
2018-03-16T10:43:48.521Z,60.88
2018-03-16T10:46:14.570Z,58.05
2018-03-16T10:48:40.632Z,59.67
2018-03-16T10:51:06.804Z,57.28
2018-03-16T10:53:32.872Z,59.60
2018-03-16T10:55:58.927Z,62.20
2018-03-16T10:58:24.972Z,57.95
2018-03-16T11:00:56.886Z,60.03
2018-03-16T11:03:22.940Z,58.65
2018-03-16T11:05:53.947Z,59.88
2018-03-16T11:08:26.208Z,58.25
2018-03-16T11:10:52.237Z,57.70
2018-03-16T11:13:18.302Z,62.92
2018-03-16T11:15:44.418Z,61.20
2018-03-16T11:18:10.574Z,58.65
2018-03-16T11:20:36.616Z,60.03
2018-03-16T11:23:02.655Z,58.30
2018-03-16T11:25:28.728Z,60.33
2018-03-16T11:27:54.784Z,60.95
2018-03-16T11:30:20.843Z,59.90
2018-03-16T11:32:46.953Z,60.05
2018-03-16T11:35:13.056Z,63.92
2018-03-16T11:37:39.094Z,56.05
2018-03-16T11:40:05.114Z,59.83
2018-03-16T11:42:31.194Z,60.58
2018-03-16T11:44:57.288Z,59.50
2018-03-16T11:47:23.349Z,60.42
2018-03-16T11:49:49.382Z,60.40
2018-03-16T11:52:15.449Z,56.97
2018-03-16T11:54:41.543Z,57.13
2018-03-16T11:57:07.610Z,60.55
2018-03-16T11:59:33.800Z,62.58
2018-03-16T12:01:59.997Z,58.67
2018-03-16T12:04:26.223Z,56.80
2018-03-16T12:06:52.367Z,60.47
2018-03-16T12:09:18.401Z,55.10
2018-03-16T12:11:44.486Z,50.00
2018-03-16T12:14:11.061Z,52.88
2018-03-16T12:16:37.089Z,52.22
2018-03-16T12:19:03.108Z,52.92
2018-03-16T12:21:29.136Z,53.90
2018-03-16T12:23:55.227Z,51.33
2018-03-16T12:26:21.255Z,52.70
2018-03-16T12:28:49.951Z,56.05
2018-03-16T12:31:13.429Z,57.00
2018-03-16T12:33:40.485Z,56.10
2018-03-16T12:36:06.547Z,57.22
2018-03-16T12:38:32.684Z,52.72
2018-03-16T12:40:58.727Z,53.67
2018-03-16T12:43:24.744Z,53.15
2018-03-16T12:45:50.794Z,52.97
2018-03-16T12:48:16.930Z,51.58
2018-03-16T12:50:42.973Z,52.35
2018-03-16T12:53:09.070Z,51.90
2018-03-16T12:55:36.448Z,48.80
2018-03-16T12:58:02.535Z,47.15
2018-03-16T13:00:28.797Z,48.25
2018-03-16T13:02:54.971Z,49.67
2018-03-16T13:05:21.039Z,45.70
2018-03-16T13:07:47.107Z,42.97
2018-03-16T13:10:13.142Z,41.20
2018-03-16T13:12:39.196Z,38.38
2018-03-16T13:15:05.392Z,38.25
2018-03-16T13:17:31.438Z,42.15
2018-03-16T13:19:57.532Z,41.58
2018-03-16T13:22:23.628Z,40.95
2018-03-16T13:24:49.655Z,41.88
2018-03-16T13:27:15.680Z,44.08
2018-03-16T13:29:41.704Z,41.25
2018-03-16T13:32:07.829Z,39.90
2018-03-16T13:34:33.892Z,41.47
2018-03-16T13:36:59.918Z,38.05
2018-03-16T13:39:26.119Z,36.70
2018-03-16T13:41:52.192Z,35.65
2018-03-16T13:44:18.298Z,32.97
2018-03-16T13:46:44.366Z,35.88
2018-03-16T13:49:10.470Z,36.90
2018-03-16T13:51:36.630Z,35.83
2018-03-16T13:54:02.768Z,37.67
2018-03-16T13:56:28.841Z,36.67
2018-03-16T13:58:54.886Z,39.60
2018-03-16T14:01:20.911Z,36.35
2018-03-16T14:03:47.089Z,39.42
2018-03-16T14:06:13.193Z,35.28
2018-03-16T14:08:39.281Z,33.25
2018-03-16T14:11:05.304Z,37.25
2018-03-16T14:13:31.351Z,37.83
2018-03-16T14:15:57.414Z,37.27
2018-03-16T14:18:23.533Z,32.03
2018-03-16T14:20:49.562Z,33.70
2018-03-16T14:23:15.660Z,34.08
2018-03-16T14:25:41.708Z,32.63
2018-03-16T14:28:07.858Z,35.67
2018-03-16T14:30:33.869Z,36.60
2018-03-16T14:32:59.946Z,33.47
2018-03-16T14:35:26.011Z,46.97
2018-03-16T14:37:52.178Z,45.88
2018-03-16T14:40:18.352Z,39.50
2018-03-16T14:42:44.550Z,32.17
2018-03-16T14:45:10.563Z,33.77
2018-03-16T14:47:36.640Z,34.17
2018-03-16T14:50:02.764Z,30.17
2018-03-16T14:52:28.779Z,32.00
2018-03-16T14:54:54.870Z,33.28
2018-03-16T14:57:20.864Z,33.63
2018-03-16T14:59:46.906Z,37.72
2018-03-16T15:02:12.944Z,33.78
2018-03-16T15:04:38.986Z,36.70
2018-03-16T15:07:05.002Z,36.88
2018-03-16T15:09:31.054Z,36.10
2018-03-16T15:11:57.091Z,36.17
2018-03-16T15:14:23.110Z,34.40
2018-03-16T15:16:49.173Z,34.80
2018-03-16T15:19:15.170Z,34.03
2018-03-16T15:21:41.312Z,34.53
2018-03-16T15:24:07.308Z,32.53
2018-03-16T15:26:33.344Z,31.55
2018-03-16T15:28:59.537Z,34.13
2018-03-16T15:31:25.590Z,33.30
2018-03-16T15:33:51.742Z,33.90
2018-03-16T15:36:17.895Z,33.10
2018-03-16T15:38:43.998Z,34.08
2018-03-16T15:41:10.711Z,31.45
2018-03-16T15:43:36.753Z,33.10
2018-03-16T15:46:02.843Z,32.13
2018-03-16T15:48:29.048Z,30.02
2018-03-16T15:50:55.089Z,30.40
2018-03-16T15:53:21.111Z,29.12
2018-03-16T15:55:47.145Z,26.77
2018-03-16T15:58:13.138Z,28.33
2018-03-16T16:00:39.130Z,29.55
2018-03-16T16:03:05.188Z,26.73
2018-03-16T16:05:31.347Z,28.35
2018-03-16T16:07:57.340Z,27.55
2018-03-16T16:10:23.339Z,28.15
2018-03-16T16:12:49.365Z,28.27
2018-03-16T16:15:15.421Z,26.35
2018-03-16T16:17:41.555Z,28.58
2018-03-16T16:20:07.577Z,29.63
2018-03-16T16:22:33.773Z,30.60
2018-03-16T16:24:59.805Z,28.50
2018-03-16T16:27:25.856Z,29.15
2018-03-16T16:29:51.952Z,26.75
2018-03-16T16:32:18.102Z,25.37
2018-03-16T16:34:44.163Z,26.40
2018-03-16T16:37:10.191Z,26.87
2018-03-16T16:39:36.305Z,24.90
2018-03-16T16:42:02.445Z,26.55
2018-03-16T16:44:28.558Z,26.10
2018-03-16T16:46:54.567Z,26.25
2018-03-16T16:49:20.586Z,26.50
2018-03-16T16:51:46.846Z,25.92
2018-03-16T16:54:12.805Z,24.90
2018-03-16T16:56:38.840Z,23.23
2018-03-16T16:59:04.869Z,21.90
2018-03-16T17:01:30.929Z,22.70
2018-03-16T17:03:56.933Z,25.15
2018-03-16T17:06:22.954Z,26.37
2018-03-16T17:08:48.962Z,25.37
2018-03-16T17:11:15.021Z,28.45
2018-03-16T17:13:41.020Z,28.17
2018-03-16T17:16:07.042Z,26.20
2018-03-16T17:18:33.720Z,26.17
2018-03-16T17:20:59.774Z,26.50
2018-03-16T17:23:25.803Z,27.52
2018-03-16T17:25:51.832Z,28.23
2018-03-16T17:28:17.998Z,29.17
2018-03-16T17:30:44.666Z,29.92
2018-03-16T17:33:11.016Z,31.40
2018-03-16T17:35:44.107Z,31.27
2018-03-16T17:38:11.089Z,31.42
2018-03-16T17:40:37.127Z,31.15
2018-03-16T17:43:03.131Z,33.05
2018-03-16T17:45:29.151Z,31.40
2018-03-16T17:47:55.176Z,31.85
2018-03-16T17:50:21.240Z,32.50
2018-03-16T17:52:47.239Z,31.17
2018-03-16T17:55:13.262Z,33.33
2018-03-16T17:57:39.267Z,32.70
2018-03-16T18:00:05.289Z,33.20
2018-03-16T18:02:31.606Z,32.75
2018-03-16T18:04:57.687Z,33.38
2018-03-16T18:07:23.757Z,33.65
2018-03-16T18:09:49.841Z,32.78
2018-03-16T18:12:15.930Z,33.13
2018-03-16T18:14:41.999Z,35.15
2018-03-16T18:17:08.089Z,31.85
2018-03-16T18:19:34.123Z,33.63
2018-03-16T18:22:00.331Z,31.30
2018-03-16T18:24:26.347Z,31.85
2018-03-16T18:26:52.381Z,30.60
2018-03-16T18:29:18.503Z,31.20
2018-03-16T18:31:44.658Z,30.73
2018-03-16T18:34:10.725Z,29.63
2018-03-16T18:36:36.758Z,29.95
2018-03-16T18:39:02.934Z,28.48
2018-03-16T18:41:28.946Z,30.98
2018-03-16T18:43:54.993Z,30.70
2018-03-16T18:46:21.002Z,29.63
2018-03-16T18:48:47.092Z,30.00
2018-03-16T18:51:13.189Z,30.37
2018-03-16T18:53:39.315Z,31.65
2018-03-16T18:56:05.398Z,34.25
2018-03-16T18:58:32.143Z,33.05
2018-03-16T19:00:58.226Z,32.28
2018-03-16T19:03:24.381Z,30.23
2018-03-16T19:05:50.461Z,31.02
2018-03-16T19:08:16.478Z,28.95
2018-03-16T19:10:42.638Z,28.87
2018-03-16T19:13:08.926Z,28.00
2018-03-16T19:15:35.013Z,28.55
2018-03-16T19:18:01.107Z,27.48
2018-03-16T19:20:27.129Z,28.73
2018-03-16T19:22:53.130Z,28.77
2018-03-16T19:25:19.167Z,29.65
2018-03-16T19:27:45.198Z,27.33
2018-03-16T19:30:11.198Z,28.67
2018-03-16T19:32:37.253Z,27.92
2018-03-16T19:35:03.314Z,31.15
2018-03-16T19:37:29.412Z,31.90
2018-03-16T19:39:55.510Z,28.48
2018-03-16T19:42:21.523Z,28.33
2018-03-16T19:44:47.559Z,29.60
2018-03-16T19:47:13.657Z,28.23
2018-03-16T19:49:39.695Z,28.42
2018-03-16T19:52:05.724Z,27.98
2018-03-16T19:54:31.764Z,27.70
2018-03-16T19:56:57.849Z,27.62
2018-03-16T19:59:23.910Z,28.27
2018-03-16T20:01:49.937Z,28.05
2018-03-16T20:04:15.983Z,28.30
2018-03-16T20:06:42.191Z,29.12
2018-03-16T20:09:08.228Z,30.15
2018-03-16T20:11:34.270Z,28.60
2018-03-16T20:14:00.382Z,27.20
2018-03-16T20:16:26.580Z,25.75
2018-03-16T20:18:52.646Z,28.80
2018-03-16T20:21:18.674Z,26.73
2018-03-16T20:23:44.803Z,27.52
2018-03-16T20:26:10.978Z,27.87
2018-03-16T20:28:37.024Z,26.98
2018-03-16T20:31:03.078Z,26.15
2018-03-16T20:33:29.155Z,25.58
2018-03-16T20:35:55.203Z,23.75
2018-03-16T20:38:21.402Z,24.20
2018-03-16T20:40:47.438Z,23.48
2018-03-16T20:43:13.503Z,25.45
2018-03-16T20:45:39.567Z,25.17
2018-03-16T20:48:05.588Z,26.40
2018-03-16T20:50:31.652Z,23.98
2018-03-16T20:52:57.853Z,24.85
2018-03-16T20:55:23.924Z,25.27
2018-03-16T20:57:49.944Z,25.02
2018-03-16T21:00:16.157Z,25.40
2018-03-16T21:02:42.287Z,28.25
2018-03-16T21:05:08.374Z,25.12
2018-03-16T21:07:34.463Z,25.17
2018-03-16T21:10:00.612Z,25.67
2018-03-16T21:12:26.693Z,27.27
2018-03-16T21:14:52.762Z,26.80
2018-03-16T21:17:18.787Z,24.05
2018-03-16T21:19:44.799Z,25.55
2018-03-16T21:22:11.020Z,26.50
2018-03-16T21:24:37.063Z,24.63
2018-03-16T21:27:03.287Z,23.83
2018-03-16T21:29:29.330Z,24.23
2018-03-16T21:31:55.352Z,24.35
2018-03-16T21:34:21.418Z,25.62
2018-03-16T21:36:47.529Z,25.88
2018-03-16T21:39:13.631Z,26.90
2018-03-16T21:41:39.645Z,24.65
2018-03-16T21:44:05.678Z,25.02
2018-03-16T21:46:31.704Z,22.98
2018-03-16T21:48:58.703Z,24.60
2018-03-16T21:51:24.735Z,25.60
2018-03-16T21:53:50.886Z,25.35
2018-03-16T21:56:17.006Z,23.35
2018-03-16T21:58:43.058Z,25.33
2018-03-16T22:01:09.157Z,26.20
2018-03-16T22:03:35.688Z,24.55
2018-03-16T22:06:01.936Z,25.60
2018-03-16T22:08:28.366Z,23.20
2018-03-16T22:10:54.396Z,24.77
2018-03-16T22:13:20.450Z,25.08
2018-03-16T22:15:46.557Z,25.45
2018-03-16T22:18:13.207Z,25.00
2018-03-16T22:20:39.249Z,24.20
2018-03-16T22:23:05.278Z,26.05
2018-03-16T22:25:31.341Z,23.83
2018-03-16T22:27:57.354Z,24.45
2018-03-16T22:30:23.405Z,23.40
2018-03-16T22:32:49.456Z,23.90
2018-03-16T22:35:15.485Z,23.40
2018-03-16T22:37:41.491Z,24.33
2018-03-16T22:40:07.545Z,24.12
2018-03-16T22:42:33.555Z,23.38
2018-03-16T22:44:59.550Z,23.70
2018-03-16T22:47:25.647Z,23.20
2018-03-16T22:49:51.646Z,24.05
2018-03-16T22:52:17.748Z,22.05
2018-03-16T22:54:43.793Z,23.42
2018-03-16T22:57:09.847Z,23.85
2018-03-16T22:59:35.893Z,22.50
2018-03-16T23:02:02.086Z,22.90
2018-03-16T23:04:28.174Z,21.58
2018-03-16T23:06:54.409Z,23.70
2018-03-16T23:09:20.447Z,22.55
2018-03-16T23:11:47.090Z,23.25
2018-03-16T23:14:13.136Z,24.52
2018-03-16T23:16:39.178Z,23.92
2018-03-16T23:19:05.243Z,23.55
2018-03-16T23:21:31.433Z,23.27
2018-03-16T23:23:57.472Z,24.33
2018-03-16T23:26:23.522Z,23.40
2018-03-16T23:28:50.434Z,24.50
2018-03-16T23:31:16.525Z,23.67
2018-03-16T23:33:42.700Z,22.80
2018-03-16T23:36:08.759Z,22.35
2018-03-16T23:38:34.813Z,22.08
2018-03-16T23:41:00.909Z,21.80
2018-03-16T23:43:26.906Z,21.73
2018-03-16T23:45:52.922Z,22.05
2018-03-16T23:48:18.946Z,21.85
2018-03-16T23:50:44.947Z,20.48
2018-03-16T23:53:10.971Z,20.98
2018-03-16T23:55:37.002Z,21.62
2018-03-16T23:58:03.098Z,21.40
